sensor_id;sensor_type;location;lat;lon;timestamp;P1;durP1;ratioP1;P2;durP2;ratioP2
51636;SDS011;37713;53.254;6.460;2023-09-07T00:01:48;8.68;;;4.38;;
51636;SDS011;37713;53.254;6.460;2023-09-07T00:04:17;7.93;;;4.63;;
51636;SDS011;37713;53.254;6.460;2023-09-07T00:06:44;7.53;;;4.55;;
51636;SDS011;37713;53.254;6.460;2023-09-07T00:09:09;10.32;;;5.38;;
51636;SDS011;37713;53.254;6.460;2023-09-07T00:11:37;9.55;;;4.75;;
51636;SDS011;37713;53.254;6.460;2023-09-07T00:14:03;9.60;;;4.70;;
51636;SDS011;37713;53.254;6.460;2023-09-07T00:16:32;8.52;;;4.57;;
51636;SDS011;37713;53.254;6.460;2023-09-07T00:19:03;8.10;;;5.45;;
51636;SDS011;37713;53.254;6.460;2023-09-07T00:21:29;11.68;;;4.63;;
51636;SDS011;37713;53.254;6.460;2023-09-07T00:23:55;8.77;;;4.20;;
51636;SDS011;37713;53.254;6.460;2023-09-07T00:26:21;7.10;;;4.43;;
51636;SDS011;37713;53.254;6.460;2023-09-07T00:28:47;9.18;;;4.18;;
51636;SDS011;37713;53.254;6.460;2023-09-07T00:31:13;7.63;;;4.28;;
51636;SDS011;37713;53.254;6.460;2023-09-07T00:33:39;7.85;;;4.60;;
51636;SDS011;37713;53.254;6.460;2023-09-07T00:36:05;6.20;;;4.18;;
51636;SDS011;37713;53.254;6.460;2023-09-07T00:38:30;7.55;;;4.45;;
51636;SDS011;37713;53.254;6.460;2023-09-07T00:40:56;7.95;;;4.25;;
51636;SDS011;37713;53.254;6.460;2023-09-07T00:43:22;7.85;;;4.22;;
51636;SDS011;37713;53.254;6.460;2023-09-07T00:45:48;8.07;;;4.68;;
51636;SDS011;37713;53.254;6.460;2023-09-07T00:48:15;8.00;;;4.30;;
51636;SDS011;37713;53.254;6.460;2023-09-07T00:50:42;9.13;;;4.60;;
51636;SDS011;37713;53.254;6.460;2023-09-07T00:53:08;11.10;;;4.80;;
51636;SDS011;37713;53.254;6.460;2023-09-07T00:55:36;7.05;;;4.63;;
51636;SDS011;37713;53.254;6.460;2023-09-07T00:58:03;8.82;;;5.20;;
51636;SDS011;37713;53.254;6.460;2023-09-07T01:00:29;7.22;;;4.78;;
51636;SDS011;37713;53.254;6.460;2023-09-07T01:02:56;6.68;;;4.78;;
51636;SDS011;37713;53.254;6.460;2023-09-07T01:05:24;9.02;;;4.93;;
51636;SDS011;37713;53.254;6.460;2023-09-07T01:07:57;8.00;;;4.63;;
51636;SDS011;37713;53.254;6.460;2023-09-07T01:10:28;9.00;;;5.43;;
51636;SDS011;37713;53.254;6.460;2023-09-07T01:12:53;9.82;;;5.43;;
51636;SDS011;37713;53.254;6.460;2023-09-07T01:15:19;8.45;;;5.30;;
51636;SDS011;37713;53.254;6.460;2023-09-07T01:17:45;7.85;;;5.25;;
51636;SDS011;37713;53.254;6.460;2023-09-07T01:20:12;10.02;;;5.38;;
51636;SDS011;37713;53.254;6.460;2023-09-07T01:22:38;8.25;;;5.38;;
51636;SDS011;37713;53.254;6.460;2023-09-07T01:25:05;7.95;;;5.28;;
51636;SDS011;37713;53.254;6.460;2023-09-07T01:27:32;7.80;;;5.22;;
51636;SDS011;37713;53.254;6.460;2023-09-07T01:29:58;8.50;;;5.85;;
51636;SDS011;37713;53.254;6.460;2023-09-07T01:32:24;9.20;;;5.32;;
51636;SDS011;37713;53.254;6.460;2023-09-07T01:34:53;10.13;;;5.50;;
51636;SDS011;37713;53.254;6.460;2023-09-07T01:39:47;7.80;;;5.32;;
51636;SDS011;37713;53.254;6.460;2023-09-07T01:42:14;8.93;;;5.55;;
51636;SDS011;37713;53.254;6.460;2023-09-07T01:44:40;10.02;;;5.70;;
51636;SDS011;37713;53.254;6.460;2023-09-07T01:47:05;10.77;;;5.70;;
51636;SDS011;37713;53.254;6.460;2023-09-07T01:49:31;8.73;;;5.65;;
51636;SDS011;37713;53.254;6.460;2023-09-07T01:51:57;9.18;;;6.07;;
51636;SDS011;37713;53.254;6.460;2023-09-07T01:54:23;10.23;;;5.60;;
51636;SDS011;37713;53.254;6.460;2023-09-07T01:56:48;8.60;;;5.75;;
51636;SDS011;37713;53.254;6.460;2023-09-07T01:59:14;8.45;;;5.95;;
51636;SDS011;37713;53.254;6.460;2023-09-07T02:01:40;9.50;;;5.78;;
51636;SDS011;37713;53.254;6.460;2023-09-07T02:04:06;8.80;;;6.38;;
51636;SDS011;37713;53.254;6.460;2023-09-07T02:06:32;11.50;;;6.13;;
51636;SDS011;37713;53.254;6.460;2023-09-07T02:08:57;11.40;;;6.30;;
51636;SDS011;37713;53.254;6.460;2023-09-07T02:11:23;9.65;;;6.22;;
51636;SDS011;37713;53.254;6.460;2023-09-07T02:13:49;10.15;;;6.43;;
51636;SDS011;37713;53.254;6.460;2023-09-07T02:16:15;12.00;;;6.68;;
51636;SDS011;37713;53.254;6.460;2023-09-07T02:18:41;11.70;;;6.80;;
51636;SDS011;37713;53.254;6.460;2023-09-07T02:21:12;9.05;;;6.90;;
51636;SDS011;37713;53.254;6.460;2023-09-07T02:23:38;9.43;;;7.05;;
51636;SDS011;37713;53.254;6.460;2023-09-07T02:26:04;11.07;;;7.13;;
51636;SDS011;37713;53.254;6.460;2023-09-07T02:28:30;9.10;;;7.05;;
51636;SDS011;37713;53.254;6.460;2023-09-07T02:31:02;9.38;;;7.07;;
51636;SDS011;37713;53.254;6.460;2023-09-07T02:33:29;10.32;;;6.78;;
51636;SDS011;37713;53.254;6.460;2023-09-07T02:35:54;11.73;;;7.38;;
51636;SDS011;37713;53.254;6.460;2023-09-07T02:38:20;10.43;;;6.97;;
51636;SDS011;37713;53.254;6.460;2023-09-07T02:40:46;12.45;;;7.10;;
51636;SDS011;37713;53.254;6.460;2023-09-07T02:43:12;10.65;;;7.10;;
51636;SDS011;37713;53.254;6.460;2023-09-07T02:45:38;9.50;;;6.78;;
51636;SDS011;37713;53.254;6.460;2023-09-07T02:48:04;10.07;;;7.07;;
51636;SDS011;37713;53.254;6.460;2023-09-07T02:50:32;10.85;;;6.85;;
51636;SDS011;37713;53.254;6.460;2023-09-07T02:52:58;10.77;;;7.07;;
51636;SDS011;37713;53.254;6.460;2023-09-07T02:55:29;12.10;;;7.40;;
51636;SDS011;37713;53.254;6.460;2023-09-07T02:57:58;10.63;;;7.20;;
51636;SDS011;37713;53.254;6.460;2023-09-07T03:00:24;11.20;;;7.00;;
51636;SDS011;37713;53.254;6.460;2023-09-07T03:02:50;11.73;;;7.88;;
51636;SDS011;37713;53.254;6.460;2023-09-07T03:05:16;8.63;;;6.78;;
51636;SDS011;37713;53.254;6.460;2023-09-07T03:07:44;8.88;;;6.80;;
51636;SDS011;37713;53.254;6.460;2023-09-07T03:10:10;11.25;;;7.38;;
51636;SDS011;37713;53.254;6.460;2023-09-07T03:12:36;10.98;;;7.63;;
51636;SDS011;37713;53.254;6.460;2023-09-07T03:15:02;10.18;;;7.50;;
51636;SDS011;37713;53.254;6.460;2023-09-07T03:17:29;13.25;;;7.47;;
51636;SDS011;37713;53.254;6.460;2023-09-07T03:19:55;10.18;;;7.43;;
51636;SDS011;37713;53.254;6.460;2023-09-07T03:22:22;11.52;;;7.70;;
51636;SDS011;37713;53.254;6.460;2023-09-07T03:24:49;11.10;;;8.30;;
51636;SDS011;37713;53.254;6.460;2023-09-07T03:27:16;10.20;;;7.38;;
51636;SDS011;37713;53.254;6.460;2023-09-07T03:29:41;10.57;;;7.93;;
51636;SDS011;37713;53.254;6.460;2023-09-07T03:32:09;11.15;;;7.82;;
51636;SDS011;37713;53.254;6.460;2023-09-07T03:34:35;14.63;;;8.15;;
51636;SDS011;37713;53.254;6.460;2023-09-07T03:37:00;12.15;;;7.88;;
51636;SDS011;37713;53.254;6.460;2023-09-07T03:39:27;12.60;;;8.13;;
51636;SDS011;37713;53.254;6.460;2023-09-07T03:41:53;10.68;;;7.40;;
51636;SDS011;37713;53.254;6.460;2023-09-07T03:44:19;12.18;;;8.30;;
51636;SDS011;37713;53.254;6.460;2023-09-07T03:46:45;10.18;;;7.25;;
51636;SDS011;37713;53.254;6.460;2023-09-07T03:49:10;11.70;;;8.30;;
51636;SDS011;37713;53.254;6.460;2023-09-07T03:51:36;10.80;;;8.23;;
51636;SDS011;37713;53.254;6.460;2023-09-07T03:54:02;11.10;;;7.90;;
51636;SDS011;37713;53.254;6.460;2023-09-07T03:56:28;11.43;;;8.30;;
51636;SDS011;37713;53.254;6.460;2023-09-07T03:58:54;13.38;;;8.20;;
51636;SDS011;37713;53.254;6.460;2023-09-07T04:01:20;15.05;;;8.07;;
51636;SDS011;37713;53.254;6.460;2023-09-07T04:03:46;10.70;;;8.38;;
51636;SDS011;37713;53.254;6.460;2023-09-07T04:06:12;12.50;;;8.85;;
51636;SDS011;37713;53.254;6.460;2023-09-07T04:08:38;13.43;;;8.35;;
51636;SDS011;37713;53.254;6.460;2023-09-07T04:11:04;11.10;;;8.18;;
51636;SDS011;37713;53.254;6.460;2023-09-07T04:13:30;11.27;;;8.27;;
51636;SDS011;37713;53.254;6.460;2023-09-07T04:15:56;12.10;;;8.75;;
51636;SDS011;37713;53.254;6.460;2023-09-07T04:18:22;12.65;;;9.02;;
51636;SDS011;37713;53.254;6.460;2023-09-07T04:20:48;24.27;;;18.20;;
51636;SDS011;37713;53.254;6.460;2023-09-07T04:23:14;21.20;;;15.23;;
51636;SDS011;37713;53.254;6.460;2023-09-07T04:25:40;16.13;;;11.52;;
51636;SDS011;37713;53.254;6.460;2023-09-07T04:28:06;13.07;;;9.60;;
51636;SDS011;37713;53.254;6.460;2023-09-07T04:30:32;13.10;;;8.73;;
51636;SDS011;37713;53.254;6.460;2023-09-07T04:33:05;13.32;;;8.57;;
51636;SDS011;37713;53.254;6.460;2023-09-07T04:35:32;10.73;;;7.78;;
51636;SDS011;37713;53.254;6.460;2023-09-07T04:37:57;12.63;;;8.88;;
51636;SDS011;37713;53.254;6.460;2023-09-07T04:40:24;12.38;;;8.48;;
51636;SDS011;37713;53.254;6.460;2023-09-07T04:42:49;12.95;;;8.55;;
51636;SDS011;37713;53.254;6.460;2023-09-07T04:45:15;12.65;;;8.25;;
51636;SDS011;37713;53.254;6.460;2023-09-07T04:47:42;15.60;;;8.20;;
51636;SDS011;37713;53.254;6.460;2023-09-07T04:50:08;13.25;;;8.38;;
51636;SDS011;37713;53.254;6.460;2023-09-07T04:52:34;12.48;;;8.45;;
51636;SDS011;37713;53.254;6.460;2023-09-07T04:55:01;12.88;;;8.23;;
51636;SDS011;37713;53.254;6.460;2023-09-07T04:57:27;11.50;;;8.60;;
51636;SDS011;37713;53.254;6.460;2023-09-07T04:59:53;16.15;;;10.90;;
51636;SDS011;37713;53.254;6.460;2023-09-07T05:02:19;28.58;;;21.30;;
51636;SDS011;37713;53.254;6.460;2023-09-07T05:04:45;28.13;;;21.58;;
51636;SDS011;37713;53.254;6.460;2023-09-07T05:07:11;27.40;;;16.85;;
51636;SDS011;37713;53.254;6.460;2023-09-07T05:09:37;18.60;;;12.15;;
51636;SDS011;37713;53.254;6.460;2023-09-07T05:12:03;15.70;;;10.07;;
51636;SDS011;37713;53.254;6.460;2023-09-07T05:14:29;13.95;;;9.70;;
51636;SDS011;37713;53.254;6.460;2023-09-07T05:16:55;18.13;;;8.63;;
51636;SDS011;37713;53.254;6.460;2023-09-07T05:19:23;11.65;;;8.65;;
51636;SDS011;37713;53.254;6.460;2023-09-07T05:21:49;10.82;;;8.32;;
51636;SDS011;37713;53.254;6.460;2023-09-07T05:24:15;12.18;;;8.73;;
51636;SDS011;37713;53.254;6.460;2023-09-07T05:26:44;12.38;;;8.65;;
51636;SDS011;37713;53.254;6.460;2023-09-07T05:29:11;13.13;;;8.57;;
51636;SDS011;37713;53.254;6.460;2023-09-07T05:31:36;11.90;;;8.10;;
51636;SDS011;37713;53.254;6.460;2023-09-07T05:34:02;12.38;;;8.70;;
51636;SDS011;37713;53.254;6.460;2023-09-07T05:36:28;11.85;;;9.00;;
51636;SDS011;37713;53.254;6.460;2023-09-07T05:38:55;12.23;;;9.35;;
51636;SDS011;37713;53.254;6.460;2023-09-07T05:41:21;14.48;;;9.10;;
51636;SDS011;37713;53.254;6.460;2023-09-07T05:43:47;13.93;;;8.93;;
51636;SDS011;37713;53.254;6.460;2023-09-07T05:46:14;11.55;;;8.73;;
51636;SDS011;37713;53.254;6.460;2023-09-07T05:48:40;13.07;;;9.18;;
51636;SDS011;37713;53.254;6.460;2023-09-07T05:51:05;14.25;;;9.20;;
51636;SDS011;37713;53.254;6.460;2023-09-07T05:53:31;13.15;;;8.70;;
51636;SDS011;37713;53.254;6.460;2023-09-07T05:55:57;11.85;;;8.57;;
51636;SDS011;37713;53.254;6.460;2023-09-07T05:58:23;12.35;;;8.68;;
51636;SDS011;37713;53.254;6.460;2023-09-07T06:00:48;11.07;;;8.77;;
51636;SDS011;37713;53.254;6.460;2023-09-07T06:03:14;13.40;;;8.90;;
51636;SDS011;37713;53.254;6.460;2023-09-07T06:05:40;12.52;;;9.00;;
51636;SDS011;37713;53.254;6.460;2023-09-07T06:08:06;11.93;;;8.93;;
51636;SDS011;37713;53.254;6.460;2023-09-07T06:10:32;13.30;;;8.65;;
51636;SDS011;37713;53.254;6.460;2023-09-07T06:12:58;11.93;;;8.55;;
51636;SDS011;37713;53.254;6.460;2023-09-07T06:15:24;12.18;;;8.48;;
51636;SDS011;37713;53.254;6.460;2023-09-07T06:17:51;11.73;;;8.68;;
51636;SDS011;37713;53.254;6.460;2023-09-07T06:20:16;12.65;;;9.35;;
51636;SDS011;37713;53.254;6.460;2023-09-07T06:22:44;13.27;;;9.40;;
51636;SDS011;37713;53.254;6.460;2023-09-07T06:25:10;15.27;;;9.75;;
51636;SDS011;37713;53.254;6.460;2023-09-07T06:27:36;12.40;;;9.48;;
51636;SDS011;37713;53.254;6.460;2023-09-07T06:30:03;14.25;;;9.23;;
51636;SDS011;37713;53.254;6.460;2023-09-07T06:32:30;11.10;;;9.05;;
51636;SDS011;37713;53.254;6.460;2023-09-07T06:34:57;13.65;;;9.30;;
51636;SDS011;37713;53.254;6.460;2023-09-07T06:37:23;13.23;;;9.50;;
51636;SDS011;37713;53.254;6.460;2023-09-07T06:39:52;13.88;;;9.80;;
51636;SDS011;37713;53.254;6.460;2023-09-07T06:42:18;13.50;;;9.15;;
51636;SDS011;37713;53.254;6.460;2023-09-07T06:44:43;14.05;;;9.70;;
51636;SDS011;37713;53.254;6.460;2023-09-07T06:47:10;14.30;;;9.40;;
51636;SDS011;37713;53.254;6.460;2023-09-07T06:49:37;13.45;;;9.88;;
51636;SDS011;37713;53.254;6.460;2023-09-07T06:52:03;14.68;;;9.40;;
51636;SDS011;37713;53.254;6.460;2023-09-07T06:54:29;13.80;;;9.50;;
51636;SDS011;37713;53.254;6.460;2023-09-07T06:56:55;12.60;;;9.02;;
51636;SDS011;37713;53.254;6.460;2023-09-07T06:59:21;12.88;;;9.40;;
51636;SDS011;37713;53.254;6.460;2023-09-07T07:01:47;12.23;;;9.40;;
51636;SDS011;37713;53.254;6.460;2023-09-07T07:04:12;13.10;;;9.77;;
51636;SDS011;37713;53.254;6.460;2023-09-07T07:06:38;12.23;;;8.95;;
51636;SDS011;37713;53.254;6.460;2023-09-07T07:09:04;14.52;;;9.10;;
51636;SDS011;37713;53.254;6.460;2023-09-07T07:11:31;11.82;;;8.50;;
51636;SDS011;37713;53.254;6.460;2023-09-07T07:13:56;14.50;;;8.70;;
51636;SDS011;37713;53.254;6.460;2023-09-07T07:16:22;11.75;;;8.95;;
51636;SDS011;37713;53.254;6.460;2023-09-07T07:18:48;11.65;;;8.02;;
51636;SDS011;37713;53.254;6.460;2023-09-07T07:21:14;11.40;;;8.15;;
51636;SDS011;37713;53.254;6.460;2023-09-07T07:23:40;14.45;;;8.38;;
51636;SDS011;37713;53.254;6.460;2023-09-07T07:26:06;13.85;;;8.38;;
51636;SDS011;37713;53.254;6.460;2023-09-07T07:28:34;11.98;;;7.68;;
51636;SDS011;37713;53.254;6.460;2023-09-07T07:31:06;10.93;;;7.72;;
51636;SDS011;37713;53.254;6.460;2023-09-07T07:33:34;12.88;;;7.80;;
51636;SDS011;37713;53.254;6.460;2023-09-07T07:36:00;11.77;;;7.78;;
51636;SDS011;37713;53.254;6.460;2023-09-07T07:38:26;14.43;;;7.97;;
51636;SDS011;37713;53.254;6.460;2023-09-07T07:40:52;9.95;;;7.40;;
51636;SDS011;37713;53.254;6.460;2023-09-07T07:43:18;10.52;;;7.50;;
51636;SDS011;37713;53.254;6.460;2023-09-07T07:45:44;12.00;;;7.22;;
51636;SDS011;37713;53.254;6.460;2023-09-07T07:48:10;10.52;;;6.35;;
51636;SDS011;37713;53.254;6.460;2023-09-07T07:50:39;10.25;;;7.43;;
51636;SDS011;37713;53.254;6.460;2023-09-07T07:53:05;10.70;;;7.07;;
51636;SDS011;37713;53.254;6.460;2023-09-07T07:55:38;10.48;;;6.55;;
51636;SDS011;37713;53.254;6.460;2023-09-07T07:58:06;9.00;;;5.95;;
51636;SDS011;37713;53.254;6.460;2023-09-07T08:00:35;10.60;;;6.07;;
51636;SDS011;37713;53.254;6.460;2023-09-07T08:03:01;12.55;;;6.75;;
51636;SDS011;37713;53.254;6.460;2023-09-07T08:05:32;11.00;;;6.32;;
51636;SDS011;37713;53.254;6.460;2023-09-07T08:07:59;8.95;;;5.72;;
51636;SDS011;37713;53.254;6.460;2023-09-07T08:10:25;9.35;;;6.00;;
51636;SDS011;37713;53.254;6.460;2023-09-07T08:12:54;7.97;;;5.50;;
51636;SDS011;37713;53.254;6.460;2023-09-07T08:15:21;8.07;;;5.30;;
51636;SDS011;37713;53.254;6.460;2023-09-07T08:17:48;9.32;;;6.07;;
51636;SDS011;37713;53.254;6.460;2023-09-07T08:20:14;10.02;;;6.25;;
51636;SDS011;37713;53.254;6.460;2023-09-07T08:22:41;8.80;;;6.03;;
51636;SDS011;37713;53.254;6.460;2023-09-07T08:25:11;8.75;;;6.15;;
51636;SDS011;37713;53.254;6.460;2023-09-07T08:27:40;9.48;;;5.95;;
51636;SDS011;37713;53.254;6.460;2023-09-07T08:30:14;10.48;;;6.25;;
51636;SDS011;37713;53.254;6.460;2023-09-07T08:32:43;9.25;;;5.70;;
51636;SDS011;37713;53.254;6.460;2023-09-07T08:35:11;8.63;;;5.35;;
51636;SDS011;37713;53.254;6.460;2023-09-07T08:37:42;8.38;;;5.43;;
51636;SDS011;37713;53.254;6.460;2023-09-07T08:40:08;8.10;;;5.72;;
51636;SDS011;37713;53.254;6.460;2023-09-07T08:42:36;9.93;;;5.53;;
51636;SDS011;37713;53.254;6.460;2023-09-07T08:45:03;9.18;;;5.93;;
51636;SDS011;37713;53.254;6.460;2023-09-07T08:47:33;10.73;;;5.80;;
51636;SDS011;37713;53.254;6.460;2023-09-07T08:50:01;12.82;;;5.85;;
51636;SDS011;37713;53.254;6.460;2023-09-07T08:52:28;12.35;;;5.72;;
51636;SDS011;37713;53.254;6.460;2023-09-07T08:54:55;12.50;;;6.53;;
51636;SDS011;37713;53.254;6.460;2023-09-07T08:57:23;11.43;;;6.20;;
51636;SDS011;37713;53.254;6.460;2023-09-07T08:59:50;10.43;;;6.00;;
51636;SDS011;37713;53.254;6.460;2023-09-07T09:02:16;11.85;;;6.05;;
51636;SDS011;37713;53.254;6.460;2023-09-07T09:04:42;9.02;;;5.47;;
51636;SDS011;37713;53.254;6.460;2023-09-07T09:07:07;13.43;;;6.40;;
51636;SDS011;37713;53.254;6.460;2023-09-07T09:09:34;10.73;;;5.75;;
51636;SDS011;37713;53.254;6.460;2023-09-07T09:12:06;15.65;;;6.07;;
51636;SDS011;37713;53.254;6.460;2023-09-07T09:14:36;10.48;;;6.20;;
51636;SDS011;37713;53.254;6.460;2023-09-07T09:17:02;10.05;;;6.00;;
51636;SDS011;37713;53.254;6.460;2023-09-07T09:19:32;9.85;;;5.30;;
51636;SDS011;37713;53.254;6.460;2023-09-07T09:21:58;8.63;;;6.05;;
51636;SDS011;37713;53.254;6.460;2023-09-07T09:24:24;9.05;;;5.28;;
51636;SDS011;37713;53.254;6.460;2023-09-07T09:26:50;10.57;;;5.72;;
51636;SDS011;37713;53.254;6.460;2023-09-07T09:29:16;12.02;;;5.00;;
51636;SDS011;37713;53.254;6.460;2023-09-07T09:31:46;8.35;;;4.78;;
51636;SDS011;37713;53.254;6.460;2023-09-07T09:34:12;10.32;;;5.47;;
51636;SDS011;37713;53.254;6.460;2023-09-07T09:36:40;8.32;;;4.78;;
51636;SDS011;37713;53.254;6.460;2023-09-07T09:39:07;9.80;;;5.32;;
51636;SDS011;37713;53.254;6.460;2023-09-07T09:41:34;11.68;;;4.65;;
51636;SDS011;37713;53.254;6.460;2023-09-07T09:44:04;8.93;;;4.50;;
51636;SDS011;37713;53.254;6.460;2023-09-07T09:46:31;11.40;;;5.05;;
51636;SDS011;37713;53.254;6.460;2023-09-07T09:48:57;10.13;;;4.55;;
51636;SDS011;37713;53.254;6.460;2023-09-07T09:51:24;8.73;;;4.72;;
51636;SDS011;37713;53.254;6.460;2023-09-07T09:53:50;9.25;;;5.22;;
51636;SDS011;37713;53.254;6.460;2023-09-07T09:56:17;8.20;;;4.53;;
51636;SDS011;37713;53.254;6.460;2023-09-07T09:58:45;8.60;;;4.80;;
51636;SDS011;37713;53.254;6.460;2023-09-07T10:01:11;9.68;;;4.70;;
51636;SDS011;37713;53.254;6.460;2023-09-07T10:03:43;8.10;;;4.78;;
51636;SDS011;37713;53.254;6.460;2023-09-07T10:06:11;10.00;;;4.57;;
51636;SDS011;37713;53.254;6.460;2023-09-07T10:08:59;6.88;;;4.43;;
51636;SDS011;37713;53.254;6.460;2023-09-07T10:11:39;8.13;;;4.60;;
51636;SDS011;37713;53.254;6.460;2023-09-07T10:14:05;6.90;;;4.50;;
51636;SDS011;37713;53.254;6.460;2023-09-07T10:16:42;8.82;;;4.60;;
51636;SDS011;37713;53.254;6.460;2023-09-07T10:19:25;6.72;;;4.20;;
51636;SDS011;37713;53.254;6.460;2023-09-07T10:21:54;8.60;;;4.60;;
51636;SDS011;37713;53.254;6.460;2023-09-07T10:24:28;8.60;;;4.50;;
51636;SDS011;37713;53.254;6.460;2023-09-07T10:27:07;7.72;;;4.65;;
51636;SDS011;37713;53.254;6.460;2023-09-07T10:29:43;9.00;;;4.38;;
51636;SDS011;37713;53.254;6.460;2023-09-07T10:34:42;14.15;;;4.90;;
51636;SDS011;37713;53.254;6.460;2023-09-07T10:37:11;8.98;;;4.00;;
51636;SDS011;37713;53.254;6.460;2023-09-07T10:39:38;9.75;;;4.90;;
51636;SDS011;37713;53.254;6.460;2023-09-07T10:42:08;9.35;;;4.40;;
51636;SDS011;37713;53.254;6.460;2023-09-07T10:44:44;10.93;;;4.50;;
51636;SDS011;37713;53.254;6.460;2023-09-07T10:47:10;8.75;;;4.70;;
51636;SDS011;37713;53.254;6.460;2023-09-07T10:49:37;7.85;;;4.20;;
51636;SDS011;37713;53.254;6.460;2023-09-07T10:52:03;8.23;;;4.60;;
51636;SDS011;37713;53.254;6.460;2023-09-07T10:54:29;8.02;;;4.13;;
51636;SDS011;37713;53.254;6.460;2023-09-07T10:56:55;8.38;;;4.55;;
51636;SDS011;37713;53.254;6.460;2023-09-07T10:59:22;8.13;;;4.47;;
51636;SDS011;37713;53.254;6.460;2023-09-07T11:01:48;8.30;;;4.32;;
51636;SDS011;37713;53.254;6.460;2023-09-07T11:04:14;8.18;;;4.35;;
51636;SDS011;37713;53.254;6.460;2023-09-07T11:06:42;8.73;;;4.47;;
51636;SDS011;37713;53.254;6.460;2023-09-07T11:09:08;7.70;;;4.43;;
51636;SDS011;37713;53.254;6.460;2023-09-07T11:11:37;9.50;;;4.63;;
51636;SDS011;37713;53.254;6.460;2023-09-07T11:14:04;10.38;;;4.35;;
51636;SDS011;37713;53.254;6.460;2023-09-07T11:16:30;8.05;;;4.63;;
51636;SDS011;37713;53.254;6.460;2023-09-07T11:19:02;6.90;;;4.38;;
51636;SDS011;37713;53.254;6.460;2023-09-07T11:21:32;7.05;;;3.90;;
51636;SDS011;37713;53.254;6.460;2023-09-07T11:23:59;7.25;;;4.45;;
51636;SDS011;37713;53.254;6.460;2023-09-07T11:26:25;12.30;;;4.75;;
51636;SDS011;37713;53.254;6.460;2023-09-07T11:28:51;7.10;;;4.45;;
51636;SDS011;37713;53.254;6.460;2023-09-07T11:31:18;7.05;;;4.55;;
51636;SDS011;37713;53.254;6.460;2023-09-07T11:33:46;9.95;;;4.68;;
51636;SDS011;37713;53.254;6.460;2023-09-07T11:36:14;6.65;;;3.58;;
51636;SDS011;37713;53.254;6.460;2023-09-07T11:38:42;7.68;;;4.05;;
51636;SDS011;37713;53.254;6.460;2023-09-07T11:41:09;8.52;;;4.10;;
51636;SDS011;37713;53.254;6.460;2023-09-07T11:43:35;7.32;;;4.15;;
51636;SDS011;37713;53.254;6.460;2023-09-07T11:46:00;8.05;;;4.10;;
51636;SDS011;37713;53.254;6.460;2023-09-07T11:48:28;6.20;;;3.80;;
51636;SDS011;37713;53.254;6.460;2023-09-07T11:50:53;6.95;;;3.90;;
51636;SDS011;37713;53.254;6.460;2023-09-07T11:53:19;9.25;;;3.80;;
51636;SDS011;37713;53.254;6.460;2023-09-07T11:55:45;9.02;;;4.30;;
51636;SDS011;37713;53.254;6.460;2023-09-07T11:58:11;6.20;;;3.75;;
51636;SDS011;37713;53.254;6.460;2023-09-07T12:00:36;8.32;;;4.20;;
51636;SDS011;37713;53.254;6.460;2023-09-07T12:03:02;6.82;;;3.95;;
51636;SDS011;37713;53.254;6.460;2023-09-07T12:05:28;6.07;;;3.35;;
51636;SDS011;37713;53.254;6.460;2023-09-07T12:07:54;9.18;;;4.00;;
51636;SDS011;37713;53.254;6.460;2023-09-07T12:10:20;7.05;;;4.22;;
51636;SDS011;37713;53.254;6.460;2023-09-07T12:12:46;9.10;;;3.65;;
51636;SDS011;37713;53.254;6.460;2023-09-07T12:15:12;7.68;;;4.00;;
51636;SDS011;37713;53.254;6.460;2023-09-07T12:17:38;7.30;;;4.22;;
51636;SDS011;37713;53.254;6.460;2023-09-07T12:20:04;8.05;;;4.22;;
51636;SDS011;37713;53.254;6.460;2023-09-07T12:22:30;7.78;;;4.05;;
51636;SDS011;37713;53.254;6.460;2023-09-07T12:24:59;11.13;;;4.20;;
51636;SDS011;37713;53.254;6.460;2023-09-07T12:27:25;6.85;;;3.88;;
51636;SDS011;37713;53.254;6.460;2023-09-07T12:29:50;7.15;;;4.35;;
51636;SDS011;37713;53.254;6.460;2023-09-07T12:32:16;7.22;;;4.18;;
51636;SDS011;37713;53.254;6.460;2023-09-07T12:34:42;8.52;;;4.35;;
51636;SDS011;37713;53.254;6.460;2023-09-07T12:37:08;8.98;;;4.45;;
51636;SDS011;37713;53.254;6.460;2023-09-07T12:39:34;8.88;;;4.80;;
51636;SDS011;37713;53.254;6.460;2023-09-07T12:41:59;8.32;;;4.20;;
51636;SDS011;37713;53.254;6.460;2023-09-07T12:44:26;9.70;;;4.00;;
51636;SDS011;37713;53.254;6.460;2023-09-07T12:46:52;6.90;;;4.38;;
51636;SDS011;37713;53.254;6.460;2023-09-07T12:49:18;7.68;;;4.32;;
51636;SDS011;37713;53.254;6.460;2023-09-07T12:51:45;8.73;;;4.30;;
51636;SDS011;37713;53.254;6.460;2023-09-07T12:54:12;8.82;;;4.20;;
51636;SDS011;37713;53.254;6.460;2023-09-07T12:56:38;8.68;;;4.50;;
51636;SDS011;37713;53.254;6.460;2023-09-07T12:59:03;8.73;;;4.50;;
51636;SDS011;37713;53.254;6.460;2023-09-07T13:01:29;8.75;;;4.03;;
51636;SDS011;37713;53.254;6.460;2023-09-07T13:03:56;10.90;;;4.30;;
51636;SDS011;37713;53.254;6.460;2023-09-07T13:06:22;6.90;;;4.00;;
51636;SDS011;37713;53.254;6.460;2023-09-07T13:08:48;10.35;;;4.38;;
51636;SDS011;37713;53.254;6.460;2023-09-07T13:11:14;8.25;;;4.40;;
51636;SDS011;37713;53.254;6.460;2023-09-07T13:13:39;8.13;;;4.22;;
51636;SDS011;37713;53.254;6.460;2023-09-07T13:16:05;8.50;;;4.30;;
51636;SDS011;37713;53.254;6.460;2023-09-07T13:18:31;6.25;;;3.95;;
51636;SDS011;37713;53.254;6.460;2023-09-07T13:20:57;7.13;;;4.30;;
51636;SDS011;37713;53.254;6.460;2023-09-07T13:23:29;9.25;;;4.60;;
51636;SDS011;37713;53.254;6.460;2023-09-07T13:25:58;8.50;;;4.28;;
51636;SDS011;37713;53.254;6.460;2023-09-07T13:28:25;7.30;;;4.20;;
51636;SDS011;37713;53.254;6.460;2023-09-07T13:30:51;7.15;;;4.45;;
51636;SDS011;37713;53.254;6.460;2023-09-07T13:33:17;9.15;;;4.20;;
51636;SDS011;37713;53.254;6.460;2023-09-07T13:35:43;8.38;;;4.10;;
51636;SDS011;37713;53.254;6.460;2023-09-07T13:38:10;7.35;;;4.30;;
51636;SDS011;37713;53.254;6.460;2023-09-07T13:40:36;8.38;;;4.50;;
51636;SDS011;37713;53.254;6.460;2023-09-07T13:43:02;9.60;;;4.22;;
51636;SDS011;37713;53.254;6.460;2023-09-07T13:45:28;10.02;;;4.65;;
51636;SDS011;37713;53.254;6.460;2023-09-07T13:47:54;8.55;;;3.95;;
51636;SDS011;37713;53.254;6.460;2023-09-07T13:50:21;10.80;;;4.32;;
51636;SDS011;37713;53.254;6.460;2023-09-07T13:52:47;7.43;;;4.18;;
51636;SDS011;37713;53.254;6.460;2023-09-07T13:55:13;6.63;;;4.05;;
51636;SDS011;37713;53.254;6.460;2023-09-07T13:57:39;7.68;;;4.00;;
51636;SDS011;37713;53.254;6.460;2023-09-07T14:00:05;7.47;;;4.05;;
51636;SDS011;37713;53.254;6.460;2023-09-07T14:02:31;8.00;;;4.10;;
51636;SDS011;37713;53.254;6.460;2023-09-07T14:05:00;6.63;;;4.05;;
51636;SDS011;37713;53.254;6.460;2023-09-07T14:07:26;7.70;;;4.20;;
51636;SDS011;37713;53.254;6.460;2023-09-07T14:09:53;6.22;;;4.18;;
51636;SDS011;37713;53.254;6.460;2023-09-07T14:12:19;8.30;;;3.88;;
51636;SDS011;37713;53.254;6.460;2023-09-07T14:14:45;7.55;;;4.25;;
51636;SDS011;37713;53.254;6.460;2023-09-07T14:17:11;7.32;;;4.13;;
51636;SDS011;37713;53.254;6.460;2023-09-07T14:19:37;6.63;;;3.92;;
51636;SDS011;37713;53.254;6.460;2023-09-07T14:22:03;7.40;;;3.97;;
51636;SDS011;37713;53.254;6.460;2023-09-07T14:24:29;8.85;;;4.80;;
51636;SDS011;37713;53.254;6.460;2023-09-07T14:26:55;11.88;;;4.10;;
51636;SDS011;37713;53.254;6.460;2023-09-07T14:29:21;7.78;;;4.00;;
51636;SDS011;37713;53.254;6.460;2023-09-07T14:31:46;8.52;;;4.05;;
51636;SDS011;37713;53.254;6.460;2023-09-07T14:34:13;8.05;;;3.97;;
51636;SDS011;37713;53.254;6.460;2023-09-07T14:36:39;6.65;;;4.10;;
51636;SDS011;37713;53.254;6.460;2023-09-07T14:39:05;7.03;;;4.05;;
51636;SDS011;37713;53.254;6.460;2023-09-07T14:41:33;8.38;;;4.45;;
51636;SDS011;37713;53.254;6.460;2023-09-07T14:44:00;7.13;;;4.07;;